createdAt,value
2019-04-26T00:01:15.796Z,2.07
2019-04-26T00:03:47.222Z,2.53
2019-04-26T00:06:19.989Z,1.97
2019-04-26T00:08:51.131Z,2.30
2019-04-26T00:11:25.289Z,2.23
2019-04-26T00:14:05.116Z,2.37
2019-04-26T00:16:42.354Z,2.00
2019-04-26T00:19:12.193Z,2.20
2019-04-26T00:21:41.939Z,2.50
2019-04-26T00:24:11.775Z,2.33
2019-04-26T00:26:41.436Z,2.20
2019-04-26T00:29:11.366Z,2.33
2019-04-26T00:31:41.141Z,2.07
2019-04-26T00:34:10.977Z,2.03
2019-04-26T00:36:42.855Z,1.93
2019-04-26T00:39:16.145Z,2.50
2019-04-26T00:41:44.904Z,2.40
2019-04-26T00:44:14.910Z,2.50
2019-04-26T00:46:48.658Z,2.60
2019-04-26T00:49:21.247Z,2.60
2019-04-26T00:51:51.344Z,2.50
2019-04-26T00:54:25.550Z,2.20
2019-04-26T00:56:55.956Z,2.60
2019-04-26T00:59:28.274Z,2.60
2019-04-26T01:01:59.433Z,2.80
2019-04-26T01:04:28.883Z,2.50
2019-04-26T01:06:59.425Z,2.27
2019-04-26T01:09:28.847Z,2.40
2019-04-26T01:11:58.316Z,2.43
2019-04-26T01:14:27.790Z,2.70
2019-04-26T01:17:03.748Z,2.70
2019-04-26T01:19:34.355Z,3.23
2019-04-26T01:22:08.837Z,2.43
2019-04-26T01:24:41.035Z,2.80
2019-04-26T01:27:12.763Z,2.40
2019-04-26T01:29:44.541Z,2.47
2019-04-26T01:32:14.918Z,2.50
2019-04-26T01:34:46.576Z,2.73
2019-04-26T01:37:16.381Z,2.80
2019-04-26T01:39:50.648Z,2.63
2019-04-26T01:42:37.460Z,2.93
2019-04-26T01:45:14.951Z,2.70
2019-04-26T01:47:45.909Z,2.93
2019-04-26T01:50:15.947Z,2.47
2019-04-26T01:52:46.245Z,3.00
2019-04-26T01:55:21.515Z,2.57
2019-04-26T01:57:51.023Z,2.97
2019-04-26T02:00:22.909Z,3.10
2019-04-26T02:02:54.873Z,3.00
2019-04-26T02:05:28.040Z,3.17
2019-04-26T02:07:59.383Z,2.77
2019-04-26T02:10:29.196Z,2.80
2019-04-26T02:12:59.934Z,3.03
2019-04-26T02:15:33.517Z,2.97
2019-04-26T02:18:04.195Z,2.70
2019-04-26T02:20:45.066Z,2.60
2019-04-26T02:23:19.039Z,3.27
2019-04-26T02:25:48.535Z,2.70
2019-04-26T02:28:18.196Z,2.90
2019-04-26T02:30:47.964Z,3.07
2019-04-26T02:33:17.781Z,2.63
2019-04-26T02:35:48.856Z,2.77
2019-04-26T02:38:19.111Z,3.13
2019-04-26T02:40:50.298Z,3.43
2019-04-26T02:43:23.169Z,2.90
2019-04-26T02:46:00.343Z,3.07
2019-04-26T02:48:36.114Z,3.13
2019-04-26T02:51:11.238Z,3.00
2019-04-26T02:53:55.638Z,3.03
2019-04-26T02:56:32.164Z,3.00
2019-04-26T02:59:07.517Z,3.10
2019-04-26T03:01:38.723Z,3.20
2019-04-26T03:04:08.810Z,3.27
2019-04-26T03:06:42.774Z,3.07
2019-04-26T03:09:15.708Z,2.50
2019-04-26T03:11:48.775Z,3.07
2019-04-26T03:14:23.430Z,3.33
2019-04-26T03:17:03.128Z,3.47
2019-04-26T03:19:50.748Z,2.50
2019-04-26T03:22:48.598Z,3.63
2019-04-26T03:25:26.843Z,3.50
2019-04-26T03:28:02.738Z,3.23
2019-04-26T03:30:59.810Z,3.30
2019-04-26T03:33:58.152Z,2.80
2019-04-26T03:37:20.443Z,3.10
2019-04-26T03:40:02.418Z,3.10
2019-04-26T03:42:40.674Z,4.30
2019-04-26T03:45:39.087Z,4.00
2019-04-26T03:48:31.051Z,3.43
2019-04-26T03:51:06.215Z,3.50
2019-04-26T03:53:45.820Z,3.53
2019-04-26T03:56:20.106Z,3.30
2019-04-26T03:59:14.911Z,3.20
2019-04-26T04:02:07.483Z,2.70
2019-04-26T04:04:56.235Z,3.00
2019-04-26T04:07:39.078Z,3.33
2019-04-26T04:10:20.647Z,3.07
2019-04-26T04:12:54.806Z,3.30
2019-04-26T04:15:33.306Z,3.73
2019-04-26T04:18:09.704Z,3.90
2019-04-26T04:20:49.705Z,3.63
2019-04-26T04:23:25.419Z,3.40
2019-04-26T04:25:58.799Z,3.83
2019-04-26T04:28:39.839Z,4.10
2019-04-26T04:31:31.037Z,4.10
2019-04-26T04:34:05.981Z,4.07
2019-04-26T04:36:46.897Z,3.63
2019-04-26T04:39:30.564Z,4.37
2019-04-26T04:42:23.742Z,4.57
2019-04-26T04:45:30.778Z,4.30
2019-04-26T04:48:19.738Z,4.20
2019-04-26T04:51:18.336Z,3.80
2019-04-26T04:54:08.607Z,4.37
2019-04-26T04:56:55.889Z,3.93
2019-04-26T04:59:44.509Z,4.50
2019-04-26T05:02:26.775Z,4.40
2019-04-26T05:05:21.794Z,4.53
2019-04-26T05:08:23.265Z,4.43
2019-04-26T05:11:07.978Z,4.77
2019-04-26T05:13:40.481Z,4.47
2019-04-26T05:16:37.182Z,4.83
2019-04-26T05:19:28.428Z,4.47
2019-04-26T05:22:29.530Z,4.93
2019-04-26T05:25:40.281Z,4.37
2019-04-26T05:28:29.142Z,4.97
2019-04-26T05:31:09.001Z,4.90
2019-04-26T05:33:50.398Z,4.50
2019-04-26T05:36:38.027Z,5.07
2019-04-26T05:39:10.563Z,4.53
2019-04-26T05:42:25.050Z,5.03
2019-04-26T05:45:44.183Z,4.70
2019-04-26T05:48:27.371Z,4.77
2019-04-26T05:51:09.961Z,4.27
2019-04-26T05:54:00.092Z,4.43
2019-04-26T05:56:56.277Z,4.67
2019-04-26T05:59:33.231Z,4.60
2019-04-26T06:02:24.052Z,4.83
2019-04-26T06:05:16.555Z,4.37
2019-04-26T06:07:56.407Z,4.97
2019-04-26T06:10:48.578Z,5.00
2019-04-26T06:13:31.851Z,4.90
2019-04-26T06:16:17.711Z,4.80
2019-04-26T06:18:57.537Z,5.40
2019-04-26T06:21:29.984Z,5.00
2019-04-26T06:24:08.563Z,4.73
2019-04-26T06:26:48.317Z,4.67
2019-04-26T06:29:38.821Z,4.90
2019-04-26T06:32:28.799Z,4.60
2019-04-26T06:35:01.500Z,4.53
2019-04-26T06:37:44.128Z,5.80
2019-04-26T06:40:42.003Z,5.40
2019-04-26T06:43:19.369Z,5.60
2019-04-26T06:46:18.896Z,5.40
2019-04-26T06:49:07.663Z,4.37
2019-04-26T06:51:52.110Z,4.83
2019-04-26T06:54:43.580Z,4.90
2019-04-26T06:57:27.160Z,5.40
2019-04-26T07:00:13.438Z,5.00
2019-04-26T07:03:05.688Z,5.50
2019-04-26T07:05:38.561Z,5.27
2019-04-26T07:08:21.125Z,5.33
2019-04-26T07:11:00.683Z,5.50
2019-04-26T07:13:46.820Z,6.10
2019-04-26T07:16:34.603Z,5.63
2019-04-26T07:19:16.972Z,5.53
2019-04-26T07:22:10.947Z,7.17
2019-04-26T07:25:19.851Z,6.10
2019-04-26T07:28:09.686Z,5.90
2019-04-26T07:30:56.715Z,5.23
2019-04-26T07:33:32.487Z,5.37
2019-04-26T07:36:26.492Z,6.30
2019-04-26T07:39:19.682Z,5.50
2019-04-26T07:42:21.317Z,6.73
2019-04-26T07:45:10.329Z,5.20
2019-04-26T07:48:17.285Z,5.47
2019-04-26T07:51:17.290Z,4.87
2019-04-26T07:53:52.719Z,5.67
2019-04-26T07:56:58.476Z,5.77
2019-04-26T07:59:59.779Z,5.70
2019-04-26T08:02:49.586Z,5.10
2019-04-26T08:05:34.532Z,5.30
2019-04-26T08:08:10.736Z,5.60
2019-04-26T08:10:44.339Z,5.30
2019-04-26T08:13:18.844Z,5.53
2019-04-26T08:15:59.094Z,4.67
2019-04-26T08:18:39.084Z,4.93
2019-04-26T08:21:31.724Z,5.07
2019-04-26T08:24:14.019Z,5.00
2019-04-26T08:26:46.742Z,4.67
2019-04-26T08:29:19.119Z,5.10
2019-04-26T08:31:53.531Z,4.73
2019-04-26T08:34:33.749Z,5.07
2019-04-26T08:37:15.102Z,4.93
2019-04-26T08:39:51.855Z,4.80
2019-04-26T08:42:23.753Z,4.17
2019-04-26T08:44:59.066Z,4.87
2019-04-26T08:47:53.417Z,4.60
2019-04-26T08:50:24.084Z,4.70
2019-04-26T08:52:58.517Z,4.40
2019-04-26T08:55:29.495Z,4.63
2019-04-26T08:58:03.694Z,4.33
2019-04-26T09:00:36.921Z,4.00
2019-04-26T09:03:13.225Z,4.47
2019-04-26T09:05:51.356Z,3.90
2019-04-26T09:08:24.516Z,4.10
2019-04-26T09:10:57.088Z,4.47
2019-04-26T09:13:30.071Z,4.13
2019-04-26T09:16:08.755Z,4.50
2019-04-26T09:18:43.399Z,4.23
2019-04-26T09:21:09.732Z,3.77
2019-04-26T09:23:57.166Z,3.90
2019-04-26T09:26:46.703Z,4.40
2019-04-26T09:29:32.292Z,4.70
2019-04-26T09:32:24.148Z,4.33
2019-04-26T09:34:52.734Z,4.50
2019-04-26T09:37:22.266Z,4.73
2019-04-26T09:39:54.507Z,5.07
2019-04-26T09:42:31.885Z,4.23
2019-04-26T09:45:19.238Z,3.97
2019-04-26T09:47:50.458Z,3.47
2019-04-26T09:50:39.730Z,3.57
2019-04-26T09:53:09.432Z,3.83
2019-04-26T09:55:39.033Z,3.83
2019-04-26T09:58:08.823Z,3.43
2019-04-26T10:00:38.755Z,3.83
2019-04-26T10:03:10.752Z,4.10
2019-04-26T10:05:41.348Z,3.98
2019-04-26T10:08:13.083Z,3.63
2019-04-26T10:10:42.147Z,3.33
2019-04-26T10:13:31.566Z,3.17
2019-04-26T10:16:04.207Z,3.63
2019-04-26T10:18:34.365Z,3.60
2019-04-26T10:21:04.303Z,3.33
2019-04-26T10:23:33.952Z,3.30
2019-04-26T10:26:05.140Z,3.30
2019-04-26T10:28:34.735Z,2.35
2019-04-26T10:31:04.475Z,3.00
2019-04-26T10:33:36.523Z,2.20
2019-04-26T10:36:05.094Z,2.47
2019-04-26T10:38:37.637Z,2.30
2019-04-26T10:41:07.643Z,2.27
2019-04-26T10:43:37.108Z,1.80
2019-04-26T10:46:31.644Z,2.10
2019-04-26T10:49:08.516Z,1.90
2019-04-26T10:51:38.623Z,1.90
2019-04-26T10:54:08.638Z,1.82
2019-04-26T10:56:42.882Z,1.98
2019-04-26T10:59:22.756Z,2.10
2019-04-26T11:01:52.439Z,1.80
2019-04-26T11:04:21.894Z,2.00
2019-04-26T11:06:51.512Z,1.95
2019-04-26T11:09:21.102Z,1.95
2019-04-26T11:11:50.669Z,1.42
2019-04-26T11:14:22.647Z,1.45
2019-04-26T11:16:52.664Z,1.63
2019-04-26T11:19:22.577Z,1.27
2019-04-26T11:21:54.819Z,1.40
2019-04-26T11:24:23.531Z,1.40
2019-04-26T11:26:53.071Z,1.45
2019-04-26T11:29:25.015Z,1.42
2019-04-26T11:31:54.257Z,1.30
2019-04-26T11:34:25.171Z,1.30
2019-04-26T11:36:56.275Z,1.32
2019-04-26T11:39:28.137Z,1.10
2019-04-26T11:41:57.285Z,1.00
2019-04-26T11:44:28.453Z,1.10
2019-04-26T11:46:59.399Z,1.40
2019-04-26T11:49:29.156Z,0.90
2019-04-26T11:52:02.679Z,1.52
2019-04-26T11:54:29.940Z,1.52
2019-04-26T11:57:00.512Z,1.40
2019-04-26T11:59:30.566Z,1.07
2019-04-26T12:02:01.292Z,2.17
2019-04-26T12:04:53.704Z,1.70
2019-04-26T12:07:23.212Z,1.37
2019-04-26T12:10:05.845Z,1.10
2019-04-26T12:12:34.816Z,1.65
2019-04-26T12:15:08.618Z,1.20
2019-04-26T12:17:36.892Z,1.30
2019-04-26T12:20:06.767Z,1.37
2019-04-26T12:22:39.365Z,1.45
2019-04-26T12:25:08.498Z,1.20
2019-04-26T12:27:38.061Z,1.40
2019-04-26T12:30:09.858Z,1.62
2019-04-26T12:32:39.776Z,1.37
2019-04-26T12:35:09.441Z,1.42
2019-04-26T12:37:38.906Z,1.30
2019-04-26T12:40:11.238Z,1.80
2019-04-26T12:42:43.434Z,1.50
2019-04-26T12:45:22.006Z,1.62
2019-04-26T12:47:56.317Z,1.35
2019-04-26T12:50:29.508Z,1.45
2019-04-26T12:52:57.386Z,1.22
2019-04-26T12:55:26.909Z,1.57
2019-04-26T12:57:59.463Z,1.62
2019-04-26T13:00:33.190Z,1.45
2019-04-26T13:03:04.409Z,1.67
2019-04-26T13:05:34.174Z,1.80
2019-04-26T13:08:03.851Z,1.55
2019-04-26T13:10:51.270Z,2.10
2019-04-26T13:13:40.057Z,1.80
2019-04-26T13:16:11.574Z,2.20
2019-04-26T13:18:45.298Z,2.30
2019-04-26T13:21:12.817Z,1.72
2019-04-26T13:23:42.324Z,1.55
2019-04-26T13:26:11.765Z,1.77
2019-04-26T13:28:41.801Z,2.40
2019-04-26T13:31:11.309Z,1.60
2019-04-26T13:33:40.748Z,2.10
2019-04-26T13:36:10.216Z,1.50
2019-04-26T13:38:43.684Z,1.45
2019-04-26T13:41:10.759Z,1.27
2019-04-26T13:43:40.201Z,1.37
2019-04-26T13:46:27.582Z,1.20
2019-04-26T13:48:58.697Z,1.52
2019-04-26T13:51:29.809Z,1.00
2019-04-26T13:53:59.258Z,1.10
2019-04-26T13:56:32.145Z,1.25
2019-04-26T13:58:59.956Z,0.90
2019-04-26T14:01:29.575Z,1.62
2019-04-26T14:04:02.391Z,1.20
2019-04-26T14:06:30.535Z,0.95
2019-04-26T14:09:02.872Z,0.88
2019-04-26T14:11:32.786Z,1.10
2019-04-26T14:14:02.203Z,1.07
2019-04-26T14:16:31.725Z,1.05
2019-04-26T14:19:01.259Z,1.72
2019-04-26T14:21:33.130Z,1.40
2019-04-26T14:24:19.636Z,1.22
2019-04-26T14:26:56.993Z,1.57
2019-04-26T14:29:28.417Z,1.35
2019-04-26T14:31:57.833Z,1.30
2019-04-26T14:34:27.547Z,1.15
2019-04-26T14:37:06.222Z,1.05
2019-04-26T14:39:38.299Z,1.25
2019-04-26T14:41:59.171Z,1.27
2019-04-26T14:44:31.264Z,1.20
2019-04-26T14:47:12.677Z,1.02
2019-04-26T14:49:39.004Z,1.40
2019-04-26T14:52:02.269Z,0.90
2019-04-26T14:54:31.671Z,0.85
2019-04-26T14:57:07.357Z,1.10
2019-04-26T14:59:44.209Z,1.27
2019-04-26T15:02:23.053Z,1.12
2019-04-26T15:05:02.939Z,1.20
2019-04-26T15:07:32.463Z,1.25
2019-04-26T15:10:02.878Z,1.20
2019-04-26T15:12:32.466Z,0.82
2019-04-26T15:15:04.228Z,0.80
2019-04-26T15:17:34.659Z,1.10
2019-04-26T15:20:07.236Z,1.27
2019-04-26T15:22:36.637Z,0.75
2019-04-26T15:25:07.660Z,1.12
2019-04-26T15:27:38.307Z,1.10
2019-04-26T15:30:08.357Z,1.00
2019-04-26T15:32:37.882Z,1.07
2019-04-26T15:35:07.664Z,1.30
2019-04-26T15:37:37.343Z,0.82
2019-04-26T15:40:31.928Z,1.07
2019-04-26T15:43:14.230Z,1.05
2019-04-26T15:45:40.353Z,1.30
2019-04-26T15:48:20.238Z,0.95
2019-04-26T15:50:52.012Z,1.25
2019-04-26T15:53:23.856Z,1.10
2019-04-26T15:55:52.495Z,0.95
2019-04-26T15:58:21.970Z,1.00
2019-04-26T16:00:52.846Z,1.22
2019-04-26T16:03:25.098Z,1.65
2019-04-26T16:05:54.936Z,1.07
2019-04-26T16:08:25.884Z,0.90
2019-04-26T16:10:55.478Z,1.10
2019-04-26T16:13:24.907Z,0.80
2019-04-26T16:15:54.376Z,1.20
2019-04-26T16:18:23.862Z,1.22
2019-04-26T16:20:53.497Z,0.90
2019-04-26T16:23:24.299Z,0.90
2019-04-26T16:25:54.883Z,0.70
2019-04-26T16:28:30.854Z,1.00
2019-04-26T16:31:18.375Z,0.82
2019-04-26T16:34:06.608Z,1.02
2019-04-26T16:36:32.336Z,0.98
2019-04-26T16:39:06.335Z,1.20
2019-04-26T16:41:38.226Z,0.80
2019-04-26T16:44:09.001Z,0.72
2019-04-26T16:46:38.644Z,0.93
2019-04-26T16:49:12.336Z,1.00
2019-04-26T16:51:43.556Z,0.75
2019-04-26T16:54:20.978Z,0.78
2019-04-26T16:56:44.326Z,1.00
2019-04-26T16:59:22.092Z,0.70
2019-04-26T17:01:47.335Z,0.70
2019-04-26T17:04:20.001Z,0.50
2019-04-26T17:06:48.779Z,0.90
2019-04-26T17:09:18.350Z,0.70
2019-04-26T17:11:47.838Z,0.57
2019-04-26T17:14:18.843Z,0.80
2019-04-26T17:16:48.265Z,0.80
2019-04-26T17:19:19.893Z,0.50
2019-04-26T17:22:00.169Z,0.70
2019-04-26T17:24:43.781Z,0.78
2019-04-26T17:27:14.681Z,0.60
2019-04-26T17:29:44.150Z,0.70
2019-04-26T17:32:17.174Z,1.07
2019-04-26T17:34:44.811Z,0.80
2019-04-26T17:37:17.213Z,0.50
2019-04-26T17:39:52.139Z,0.65
2019-04-26T17:42:18.878Z,0.78
2019-04-26T17:44:51.570Z,0.75
2019-04-26T17:47:20.890Z,0.50
2019-04-26T17:49:52.361Z,0.60
2019-04-26T17:52:21.334Z,0.70
2019-04-26T17:54:52.051Z,0.70
2019-04-26T17:57:33.473Z,0.78
2019-04-26T18:00:06.462Z,0.75
2019-04-26T18:02:40.275Z,1.50
2019-04-26T18:05:03.219Z,0.88
2019-04-26T18:07:41.407Z,1.12
2019-04-26T18:10:06.113Z,0.65
2019-04-26T18:12:39.149Z,0.85
2019-04-26T18:15:10.315Z,0.70
2019-04-26T18:17:40.399Z,0.80
2019-04-26T18:20:18.819Z,0.50
2019-04-26T18:22:52.609Z,0.57
2019-04-26T18:25:23.528Z,0.78
2019-04-26T18:27:54.975Z,0.98
2019-04-26T18:30:26.255Z,0.80
2019-04-26T18:32:55.833Z,1.05
2019-04-26T18:35:29.543Z,1.22
2019-04-26T18:38:00.357Z,0.98
2019-04-26T18:40:35.371Z,1.07
2019-04-26T18:43:00.965Z,1.32
2019-04-26T18:45:30.385Z,1.32
2019-04-26T18:48:04.629Z,1.37
2019-04-26T18:50:36.366Z,1.40
2019-04-26T18:53:15.173Z,1.85
2019-04-26T18:55:46.290Z,1.30
2019-04-26T18:58:15.725Z,1.15
2019-04-26T19:00:45.317Z,1.02
2019-04-26T19:03:16.035Z,1.07
2019-04-26T19:05:45.680Z,1.25
2019-04-26T19:08:15.245Z,1.35
2019-04-26T19:10:44.779Z,1.45
2019-04-26T19:13:30.942Z,1.07
2019-04-26T19:16:10.679Z,1.35
2019-04-26T19:18:55.993Z,0.93
2019-04-26T19:21:43.531Z,1.12
2019-04-26T19:24:19.808Z,1.20
2019-04-26T19:26:49.915Z,1.15
2019-04-26T19:29:18.681Z,1.30
2019-04-26T19:31:47.788Z,1.85
2019-04-26T19:34:17.869Z,1.50
2019-04-26T19:36:48.392Z,1.52
2019-04-26T19:39:22.799Z,1.00
2019-04-26T19:41:57.615Z,0.90
2019-04-26T19:44:24.426Z,1.17
2019-04-26T19:47:04.418Z,1.05
2019-04-26T19:49:54.029Z,1.62
2019-04-26T19:52:25.701Z,1.52
2019-04-26T19:54:56.902Z,1.00
2019-04-26T19:57:33.374Z,1.02
2019-04-26T20:00:03.748Z,0.80
2019-04-26T20:02:39.041Z,0.90
2019-04-26T20:05:07.694Z,0.80
2019-04-26T20:07:37.433Z,0.90
2019-04-26T20:10:07.173Z,1.30
2019-04-26T20:12:38.173Z,1.27
2019-04-26T20:15:08.204Z,1.00
2019-04-26T20:17:37.814Z,0.90
2019-04-26T20:20:18.939Z,1.10
2019-04-26T20:22:38.676Z,0.90
2019-04-26T20:25:08.349Z,1.00
2019-04-26T20:27:37.920Z,1.10
2019-04-26T20:30:09.918Z,1.00
2019-04-26T20:32:44.370Z,1.20
2019-04-26T20:35:19.773Z,0.95
2019-04-26T20:37:49.991Z,1.85
2019-04-26T20:40:24.697Z,1.57
2019-04-26T20:42:51.195Z,1.10
2019-04-26T20:45:23.006Z,1.17
2019-04-26T20:47:55.653Z,1.00
2019-04-26T20:50:23.961Z,0.90
2019-04-26T20:53:00.427Z,0.90
2019-04-26T20:55:30.334Z,1.35
2019-04-26T20:57:55.792Z,1.10
2019-04-26T21:00:25.523Z,1.00
2019-04-26T21:03:01.239Z,1.20
2019-04-26T21:05:28.271Z,1.85
2019-04-26T21:07:59.855Z,1.40
2019-04-26T21:10:29.529Z,1.90
2019-04-26T21:12:59.046Z,1.62
2019-04-26T21:15:28.627Z,1.25
2019-04-26T21:18:02.785Z,1.33
2019-04-26T21:20:36.239Z,0.90
2019-04-26T21:23:03.835Z,1.47
2019-04-26T21:25:35.559Z,1.07
2019-04-26T21:28:24.030Z,1.00
2019-04-26T21:30:57.972Z,1.20
2019-04-26T21:33:35.800Z,1.55
2019-04-26T21:36:07.288Z,1.60
2019-04-26T21:38:45.250Z,1.47
2019-04-26T21:41:19.298Z,1.30
2019-04-26T21:43:48.908Z,1.20
2019-04-26T21:46:19.279Z,1.77
2019-04-26T21:48:49.696Z,1.70
2019-04-26T21:51:19.122Z,1.22
2019-04-26T21:53:48.608Z,1.60
2019-04-26T21:56:18.057Z,1.50
2019-04-26T21:58:47.500Z,1.77
2019-04-26T22:01:20.412Z,1.40
2019-04-26T22:03:54.473Z,1.40
2019-04-26T22:06:26.788Z,2.20
2019-04-26T22:09:04.794Z,1.70
2019-04-26T22:11:38.409Z,2.00
2019-04-26T22:14:19.260Z,2.00
2019-04-26T22:16:45.507Z,2.70
2019-04-26T22:19:21.649Z,1.70
2019-04-26T22:22:09.219Z,1.50
2019-04-26T22:24:40.097Z,1.40
2019-04-26T22:27:09.625Z,1.83
2019-04-26T22:29:39.033Z,1.60
2019-04-26T22:32:11.522Z,1.40
2019-04-26T22:34:42.796Z,1.45
2019-04-26T22:37:12.902Z,1.60
2019-04-26T22:39:44.330Z,1.53
2019-04-26T22:42:14.216Z,1.80
2019-04-26T22:45:03.337Z,1.60
2019-04-26T22:47:50.741Z,1.53
2019-04-26T22:50:28.931Z,2.23
2019-04-26T22:52:58.743Z,1.63
2019-04-26T22:55:28.197Z,1.77
2019-04-26T22:57:59.215Z,1.97
2019-04-26T23:00:30.828Z,1.63
2019-04-26T23:03:03.724Z,1.70
2019-04-26T23:05:39.042Z,2.40
2019-04-26T23:08:06.717Z,2.10
2019-04-26T23:10:40.742Z,1.87
2019-04-26T23:13:20.888Z,1.70
2019-04-26T23:16:00.638Z,2.00
2019-04-26T23:18:33.463Z,2.50
2019-04-26T23:21:11.938Z,2.07
2019-04-26T23:23:40.987Z,3.43
2019-04-26T23:26:12.674Z,3.03
2019-04-26T23:28:43.470Z,2.40
2019-04-26T23:31:15.830Z,2.23
2019-04-26T23:33:47.118Z,2.30
2019-04-26T23:36:18.449Z,2.90
2019-04-26T23:38:50.798Z,2.10
2019-04-26T23:41:20.222Z,1.80
2019-04-26T23:43:56.540Z,1.80
2019-04-26T23:46:25.708Z,2.30
2019-04-26T23:48:56.767Z,2.20
2019-04-26T23:51:26.355Z,1.80
2019-04-26T23:53:57.749Z,1.60
2019-04-26T23:56:28.732Z,2.03
2019-04-26T23:58:58.481Z,1.70
